createdAt,value
2022-10-11T00:01:41.391Z,76.17
2022-10-11T00:04:08.073Z,76.41
2022-10-11T00:06:34.696Z,75.83
2022-10-11T00:09:01.276Z,76.63
2022-10-11T00:11:27.795Z,76.05
2022-10-11T00:13:54.312Z,76.70
2022-10-11T00:16:20.864Z,76.74
2022-10-11T00:18:47.395Z,76.01
2022-10-11T00:21:15.191Z,76.29
2022-10-11T00:23:42.909Z,76.19
2022-10-11T00:26:11.538Z,76.20
2022-10-11T00:28:38.907Z,76.24
2022-10-11T00:31:10.833Z,76.90
2022-10-11T00:33:37.719Z,75.77
2022-10-11T00:36:04.708Z,76.17
2022-10-11T00:38:32.181Z,77.29
2022-10-11T00:40:59.660Z,77.06
2022-10-11T00:43:28.977Z,76.34
2022-10-11T00:45:55.413Z,76.00
2022-10-11T00:48:27.639Z,76.48
2022-10-11T00:50:58.283Z,76.73
2022-10-11T00:53:26.070Z,76.96
2022-10-11T00:56:04.501Z,76.20
2022-10-11T00:58:35.067Z,76.64
2022-10-11T01:01:02.260Z,76.67
2022-10-11T01:03:30.860Z,76.31
2022-10-11T01:05:57.459Z,76.74
2022-10-11T01:08:25.571Z,76.97
2022-10-11T01:10:52.153Z,76.10
2022-10-11T01:13:30.897Z,77.42
2022-10-11T01:16:23.907Z,76.40
2022-10-11T01:19:26.316Z,77.47
2022-10-11T01:21:57.598Z,76.34
2022-10-11T01:24:49.106Z,76.72
2022-10-11T01:27:38.349Z,77.76
2022-10-11T01:30:19.962Z,76.70
2022-10-11T01:33:05.109Z,76.73
2022-10-11T01:35:34.555Z,77.27
2022-10-11T01:38:34.964Z,77.50
2022-10-11T01:41:13.700Z,76.66
2022-10-11T01:43:42.530Z,76.77
2022-10-11T01:46:10.317Z,77.26
2022-10-11T01:48:57.880Z,77.30
2022-10-11T01:51:29.782Z,76.79
2022-10-11T01:54:05.362Z,77.98
2022-10-11T01:56:53.668Z,77.64
2022-10-11T01:59:47.704Z,77.96
2022-10-11T02:02:17.140Z,77.74
2022-10-11T02:04:50.492Z,77.88
2022-10-11T02:07:33.590Z,77.74
2022-10-11T02:10:32.405Z,77.32
2022-10-11T02:13:08.156Z,77.80
2022-10-11T02:15:39.131Z,77.25
2022-10-11T02:18:10.660Z,77.62
2022-10-11T02:20:39.634Z,77.43
2022-10-11T02:23:12.098Z,77.13
2022-10-11T02:25:38.995Z,78.16
2022-10-11T02:28:12.413Z,77.57
2022-10-11T02:30:41.755Z,77.46
2022-10-11T02:33:13.066Z,78.23
2022-10-11T02:35:44.343Z,78.20
2022-10-11T02:38:27.598Z,78.51
2022-10-11T02:41:01.881Z,78.45
2022-10-11T02:43:31.947Z,77.95
2022-10-11T02:46:03.520Z,78.21
2022-10-11T02:48:32.325Z,77.85
2022-10-11T02:50:59.277Z,77.98
2022-10-11T02:53:26.993Z,77.87
2022-10-11T02:55:54.851Z,77.71
2022-10-11T02:58:22.978Z,78.23
2022-10-11T03:00:50.094Z,78.35
2022-10-11T03:03:16.604Z,78.27
2022-10-11T03:05:44.072Z,78.64
2022-10-11T03:08:12.706Z,78.10
2022-10-11T03:10:41.408Z,78.48
2022-10-11T03:13:08.259Z,78.31
2022-10-11T03:15:35.184Z,78.17
2022-10-11T03:18:01.656Z,78.16
2022-10-11T03:20:28.178Z,77.97
2022-10-11T03:22:54.736Z,78.23
2022-10-11T03:25:21.278Z,78.46
2022-10-11T03:27:47.795Z,78.75
2022-10-11T03:30:18.395Z,78.55
2022-10-11T03:32:45.506Z,77.89
2022-10-11T03:35:12.075Z,78.16
2022-10-11T03:37:38.586Z,78.35
2022-10-11T03:40:06.489Z,78.17
2022-10-11T03:42:32.973Z,78.26
2022-10-11T03:45:01.702Z,77.75
2022-10-11T03:47:28.231Z,78.43
2022-10-11T03:49:54.724Z,78.35
2022-10-11T03:52:21.289Z,78.68
2022-10-11T03:54:48.064Z,78.35
2022-10-11T03:57:14.999Z,78.24
2022-10-11T03:59:41.592Z,78.02
2022-10-11T04:02:08.275Z,78.30
2022-10-11T04:04:35.098Z,78.30
2022-10-11T04:07:01.717Z,78.63
2022-10-11T04:09:28.279Z,77.98
2022-10-11T04:11:54.769Z,78.47
2022-10-11T04:14:21.332Z,78.07
2022-10-11T04:16:47.891Z,78.22
2022-10-11T04:19:14.471Z,78.28
2022-10-11T04:21:41.064Z,78.70
2022-10-11T04:24:07.758Z,78.43
2022-10-11T04:26:34.297Z,78.61
2022-10-11T04:29:00.833Z,78.67
2022-10-11T04:31:27.330Z,79.04
2022-10-11T04:33:53.893Z,78.69
2022-10-11T04:36:20.412Z,78.95
2022-10-11T04:38:46.894Z,78.94
2022-10-11T04:41:14.180Z,78.97
2022-10-11T04:43:40.962Z,78.46
2022-10-11T04:46:08.681Z,78.88
2022-10-11T04:48:36.310Z,79.31
2022-10-11T04:51:02.814Z,79.20
2022-10-11T04:53:29.465Z,78.52
2022-10-11T04:56:02.425Z,78.91
2022-10-11T04:58:30.988Z,79.19
2022-10-11T05:00:58.487Z,79.22
2022-10-11T05:03:25.976Z,79.18
2022-10-11T05:05:53.128Z,78.35
2022-10-11T05:08:20.581Z,79.09
2022-10-11T05:11:08.587Z,79.46
2022-10-11T05:13:36.166Z,78.60
2022-10-11T05:16:07.151Z,78.54
2022-10-11T05:18:37.248Z,79.45
2022-10-11T05:21:15.987Z,78.71
2022-10-11T05:23:42.882Z,78.82
2022-10-11T05:26:09.892Z,79.18
2022-10-11T05:28:36.592Z,78.89
2022-10-11T05:31:03.446Z,79.13
2022-10-11T05:33:30.085Z,78.69
2022-10-11T05:35:56.701Z,79.54
2022-10-11T05:38:23.754Z,78.66
2022-10-11T05:40:50.653Z,79.08
2022-10-11T05:43:17.181Z,79.27
2022-10-11T05:45:44.668Z,78.89
2022-10-11T05:48:11.575Z,79.04
2022-10-11T05:50:38.851Z,78.85
2022-10-11T05:53:06.253Z,79.55
2022-10-11T05:55:40.979Z,79.52
2022-10-11T05:58:08.819Z,79.38
2022-10-11T06:00:36.980Z,79.03
2022-10-11T06:03:05.061Z,79.34
2022-10-11T06:05:31.869Z,79.80
2022-10-11T06:07:58.892Z,79.90
2022-10-11T06:10:26.181Z,79.35
2022-10-11T06:12:52.966Z,79.08
2022-10-11T06:15:19.725Z,79.45
2022-10-11T06:17:47.069Z,79.06
2022-10-11T06:20:13.683Z,79.53
2022-10-11T06:22:40.315Z,79.04
2022-10-11T06:25:07.584Z,79.95
2022-10-11T06:27:34.215Z,79.52
2022-10-11T06:30:00.932Z,79.95
2022-10-11T06:32:27.547Z,79.18
2022-10-11T06:34:54.120Z,79.68
2022-10-11T06:37:20.648Z,79.37
2022-10-11T06:39:47.157Z,79.80
2022-10-11T06:42:13.768Z,79.23
2022-10-11T06:44:40.323Z,79.60
2022-10-11T06:47:08.241Z,79.93
2022-10-11T06:49:34.917Z,79.81
2022-10-11T06:52:01.606Z,79.91
2022-10-11T06:54:28.195Z,79.32
2022-10-11T06:56:54.682Z,79.68
2022-10-11T06:59:21.339Z,79.65
2022-10-11T07:01:47.857Z,79.52
2022-10-11T07:04:14.359Z,79.45
2022-10-11T07:06:41.619Z,80.01
2022-10-11T07:09:08.962Z,79.74
2022-10-11T07:11:35.755Z,79.73
2022-10-11T07:14:07.594Z,79.69
2022-10-11T07:16:36.279Z,79.88
2022-10-11T07:19:04.987Z,79.45
2022-10-11T07:21:33.347Z,79.75
2022-10-11T07:24:00.623Z,79.60
2022-10-11T07:26:28.312Z,79.57
2022-10-11T07:28:55.304Z,79.64
2022-10-11T07:31:25.694Z,80.11
2022-10-11T07:33:52.739Z,80.31
2022-10-11T07:36:20.107Z,80.34
2022-10-11T07:38:47.515Z,80.42
2022-10-11T07:41:14.609Z,80.46
2022-10-11T07:43:43.259Z,80.31
2022-10-11T07:46:10.967Z,80.69
2022-10-11T07:48:38.077Z,80.59
2022-10-11T07:51:07.703Z,80.81
2022-10-11T07:54:07.766Z,80.84
2022-10-11T07:56:34.854Z,80.46
2022-10-11T07:59:04.460Z,80.78
2022-10-11T08:01:31.779Z,80.78
2022-10-11T08:03:58.890Z,80.51
2022-10-11T08:06:30.209Z,80.39
2022-10-11T08:08:58.431Z,80.77
2022-10-11T08:11:27.799Z,80.67
2022-10-11T08:13:54.914Z,80.40
2022-10-11T08:16:21.980Z,81.14
2022-10-11T08:18:48.788Z,80.30
2022-10-11T08:21:17.392Z,79.98
2022-10-11T08:23:44.412Z,79.56
2022-10-11T08:26:11.184Z,79.42
2022-10-11T08:28:38.007Z,79.87
2022-10-11T08:31:04.948Z,80.12
2022-10-11T08:33:31.862Z,80.16
2022-10-11T08:35:58.493Z,80.07
2022-10-11T08:38:24.994Z,79.42
2022-10-11T08:40:53.827Z,79.73
2022-10-11T08:43:41.139Z,79.77
2022-10-11T08:46:08.425Z,79.84
2022-10-11T08:48:38.435Z,80.01
2022-10-11T08:51:15.428Z,79.60
2022-10-11T08:53:57.953Z,79.43
2022-10-11T08:56:26.359Z,79.02
2022-10-11T08:59:03.213Z,78.82
2022-10-11T09:01:31.568Z,78.30
2022-10-11T09:04:00.129Z,78.70
2022-10-11T09:07:02.600Z,78.13
2022-10-11T09:10:00.647Z,77.68
2022-10-11T09:12:30.971Z,77.56
2022-10-11T09:15:20.444Z,77.81
2022-10-11T09:17:56.051Z,76.97
2022-10-11T09:20:34.510Z,77.36
2022-10-11T09:23:52.115Z,76.78
2022-10-11T09:26:35.280Z,75.62
2022-10-11T09:29:18.762Z,74.25
2022-10-11T09:31:53.831Z,75.37
2022-10-11T09:34:24.196Z,75.26
2022-10-11T09:36:57.872Z,73.32
2022-10-11T09:39:36.571Z,73.12
2022-10-11T09:42:11.579Z,72.30
2022-10-11T09:44:39.991Z,71.95
2022-10-11T09:47:13.354Z,71.56
2022-10-11T09:49:49.250Z,70.79
2022-10-11T09:52:18.396Z,69.46
2022-10-11T09:54:49.766Z,68.87
2022-10-11T09:57:23.382Z,68.64
2022-10-11T10:00:00.784Z,68.04
2022-10-11T10:02:30.172Z,67.57
2022-10-11T10:05:14.214Z,66.47
2022-10-11T10:08:01.660Z,65.47
2022-10-11T10:10:59.137Z,64.28
2022-10-11T10:13:51.456Z,63.03
2022-10-11T10:16:30.807Z,63.41
2022-10-11T10:19:03.573Z,62.26
2022-10-11T10:21:34.016Z,61.80
2022-10-11T10:24:05.719Z,60.50
2022-10-11T10:26:33.405Z,59.64
2022-10-11T10:29:08.959Z,60.22
2022-10-11T10:32:13.018Z,58.99
2022-10-11T10:34:37.809Z,57.08
2022-10-11T10:37:44.122Z,53.77
2022-10-11T10:40:21.735Z,52.70
2022-10-11T10:42:49.809Z,56.53
2022-10-11T10:45:21.398Z,55.91
2022-10-11T10:48:15.362Z,54.77
2022-10-11T10:50:54.694Z,53.96
2022-10-11T10:53:40.516Z,53.82
2022-10-11T10:56:12.315Z,52.77
2022-10-11T10:58:44.712Z,52.43
2022-10-11T11:01:25.044Z,51.89
2022-10-11T11:04:23.891Z,50.76
2022-10-11T11:06:57.667Z,51.28
2022-10-11T11:09:53.758Z,50.66
2022-10-11T11:12:29.091Z,50.94
2022-10-11T11:15:19.764Z,48.80
2022-10-11T11:18:11.714Z,50.43
2022-10-11T11:21:03.742Z,49.88
2022-10-11T11:23:49.392Z,48.79
2022-10-11T11:26:44.554Z,46.53
2022-10-11T11:29:26.062Z,47.87
2022-10-11T11:32:15.312Z,48.08
2022-10-11T11:34:47.020Z,47.71
2022-10-11T11:37:26.514Z,48.65
2022-10-11T11:39:59.657Z,48.05
2022-10-11T11:42:49.624Z,47.58
2022-10-11T11:45:22.602Z,48.18
2022-10-11T11:47:56.810Z,46.22
2022-10-11T11:50:25.159Z,47.47
2022-10-11T11:52:55.829Z,47.11
2022-10-11T11:55:33.314Z,46.73
2022-10-11T11:58:38.607Z,47.56
2022-10-11T12:01:17.493Z,47.42
2022-10-11T12:03:51.406Z,47.07
2022-10-11T12:06:23.009Z,46.31
2022-10-11T12:09:32.306Z,44.98
2022-10-11T12:12:01.276Z,46.44
2022-10-11T12:14:37.663Z,47.21
2022-10-11T12:17:18.664Z,47.08
2022-10-11T12:20:41.559Z,47.15
2022-10-11T12:23:30.134Z,43.84
2022-10-11T12:26:27.449Z,43.75
2022-10-11T12:29:04.451Z,45.02
2022-10-11T12:31:36.445Z,47.43
2022-10-11T12:34:09.036Z,46.95
2022-10-11T12:36:40.435Z,46.35
2022-10-11T12:39:22.714Z,46.75
2022-10-11T12:41:53.697Z,47.61
2022-10-11T12:44:28.619Z,47.39
2022-10-11T12:46:55.052Z,47.31
2022-10-11T12:49:33.620Z,47.58
2022-10-11T12:52:24.809Z,47.79
2022-10-11T12:55:04.488Z,47.54
2022-10-11T12:57:49.817Z,48.74
2022-10-11T13:00:20.651Z,48.19
2022-10-11T13:02:48.927Z,48.80
2022-10-11T13:05:18.516Z,48.67
2022-10-11T13:07:46.297Z,48.83
2022-10-11T13:10:36.033Z,47.97
2022-10-11T13:13:04.522Z,48.31
2022-10-11T13:15:31.506Z,48.27
2022-10-11T13:18:02.435Z,47.18
2022-10-11T13:20:36.283Z,47.25
2022-10-11T13:23:35.952Z,48.12
2022-10-11T13:26:02.568Z,47.35
2022-10-11T13:28:35.562Z,48.27
2022-10-11T13:31:04.406Z,48.53
2022-10-11T13:33:35.370Z,47.38
2022-10-11T13:36:04.573Z,47.24
2022-10-11T13:38:36.870Z,47.19
2022-10-11T13:41:07.155Z,48.26
2022-10-11T13:43:34.157Z,48.09
2022-10-11T13:46:04.882Z,49.00
2022-10-11T13:48:32.338Z,49.06
2022-10-11T13:51:16.894Z,49.00
2022-10-11T13:54:08.462Z,48.32
2022-10-11T13:56:51.384Z,48.92
2022-10-11T13:59:22.096Z,48.83
2022-10-11T14:01:50.427Z,48.50
2022-10-11T14:04:17.498Z,48.73
2022-10-11T14:06:53.495Z,48.82
2022-10-11T14:09:34.181Z,48.34
2022-10-11T14:12:31.146Z,49.06
2022-10-11T14:14:59.589Z,48.56
2022-10-11T14:17:42.522Z,48.68
2022-10-11T14:20:30.876Z,47.42
2022-10-11T14:23:00.096Z,49.08
2022-10-11T14:25:26.864Z,49.56
2022-10-11T14:27:54.605Z,49.10
2022-10-11T14:30:26.209Z,48.23
2022-10-11T14:32:56.068Z,47.87
2022-10-11T14:35:28.161Z,47.18
2022-10-11T14:37:54.855Z,47.36
2022-10-11T14:40:24.310Z,47.88
2022-10-11T14:42:51.085Z,47.74
2022-10-11T14:45:17.881Z,47.71
2022-10-11T14:47:45.158Z,47.31
2022-10-11T14:50:45.732Z,47.12
2022-10-11T14:53:12.503Z,47.67
2022-10-11T14:55:40.615Z,47.03
2022-10-11T14:58:08.968Z,47.02
2022-10-11T15:00:36.961Z,46.62
2022-10-11T15:03:05.223Z,46.53
2022-10-11T15:05:34.194Z,46.08
2022-10-11T15:08:02.285Z,46.78
2022-10-11T15:10:42.047Z,46.84
2022-10-11T15:13:08.930Z,47.10
2022-10-11T15:15:37.782Z,46.05
2022-10-11T15:18:07.032Z,46.29
2022-10-11T15:20:39.207Z,45.68
2022-10-11T15:23:07.785Z,46.37
2022-10-11T15:25:34.639Z,46.25
2022-10-11T15:28:01.632Z,45.79
2022-10-11T15:30:41.606Z,44.78
2022-10-11T15:33:09.068Z,44.89
2022-10-11T15:35:35.696Z,46.43
2022-10-11T15:38:02.812Z,45.60
2022-10-11T15:40:35.530Z,45.49
2022-10-11T15:43:02.461Z,45.64
2022-10-11T15:45:29.838Z,46.79
2022-10-11T15:47:56.889Z,46.00
2022-10-11T15:50:39.272Z,46.10
2022-10-11T15:53:05.919Z,46.39
2022-10-11T15:55:34.875Z,46.22
2022-10-11T15:58:01.842Z,47.16
2022-10-11T16:00:29.625Z,46.82
2022-10-11T16:02:57.411Z,47.21
2022-10-11T16:05:25.979Z,46.67
2022-10-11T16:07:53.385Z,46.59
2022-10-11T16:10:21.181Z,46.71
2022-10-11T16:12:47.710Z,47.12
2022-10-11T16:15:15.339Z,48.31
2022-10-11T16:17:41.934Z,48.04
2022-10-11T16:20:09.266Z,48.65
2022-10-11T16:22:36.624Z,48.56
2022-10-11T16:25:04.482Z,49.92
2022-10-11T16:27:31.466Z,50.55
2022-10-11T16:29:58.325Z,51.42
2022-10-11T16:32:25.399Z,51.48
2022-10-11T16:34:51.898Z,51.79
2022-10-11T16:37:18.940Z,52.15
2022-10-11T16:39:46.361Z,52.85
2022-10-11T16:42:12.903Z,53.73
2022-10-11T16:44:39.490Z,54.25
2022-10-11T16:47:06.618Z,55.48
2022-10-11T16:49:33.374Z,54.44
2022-10-11T16:52:02.259Z,54.54
2022-10-11T16:54:30.484Z,56.09
2022-10-11T16:56:58.414Z,55.34
2022-10-11T16:59:25.710Z,56.17
2022-10-11T17:01:52.166Z,56.61
2022-10-11T17:04:18.911Z,57.02
2022-10-11T17:06:45.441Z,57.71
2022-10-11T17:09:12.605Z,57.77
2022-10-11T17:11:40.626Z,57.87
2022-10-11T17:14:07.689Z,58.57
2022-10-11T17:16:35.031Z,58.67
2022-10-11T17:19:02.590Z,59.25
2022-10-11T17:21:29.250Z,58.71
2022-10-11T17:23:56.005Z,59.44
2022-10-11T17:26:27.858Z,60.00
2022-10-11T17:28:56.443Z,60.41
2022-10-11T17:31:24.083Z,60.43
2022-10-11T17:33:51.302Z,60.71
2022-10-11T17:36:38.119Z,61.30
2022-10-11T17:39:11.159Z,61.25
2022-10-11T17:41:37.685Z,61.23
2022-10-11T17:44:04.945Z,60.89
2022-10-11T17:46:34.385Z,60.96
2022-10-11T17:49:06.728Z,61.48
2022-10-11T17:51:37.076Z,62.77
2022-10-11T17:54:04.133Z,62.20
2022-10-11T17:56:36.607Z,62.52
2022-10-11T17:59:04.343Z,62.46
2022-10-11T18:01:30.996Z,63.34
2022-10-11T18:03:59.903Z,64.05
2022-10-11T18:06:28.902Z,63.49
2022-10-11T18:08:57.255Z,63.67
2022-10-11T18:11:23.885Z,63.88
2022-10-11T18:13:52.238Z,64.77
2022-10-11T18:16:21.578Z,64.97
2022-10-11T18:18:48.283Z,65.40
2022-10-11T18:21:16.097Z,64.63
2022-10-11T18:23:42.636Z,65.82
2022-10-11T18:26:15.078Z,65.11
2022-10-11T18:28:42.451Z,66.49
2022-10-11T18:31:15.468Z,66.57
2022-10-11T18:33:43.336Z,66.34
2022-10-11T18:36:13.264Z,66.35
2022-10-11T18:38:43.949Z,66.36
2022-10-11T18:41:11.548Z,66.43
2022-10-11T18:43:38.157Z,66.26
2022-10-11T18:46:04.658Z,67.36
2022-10-11T18:48:32.650Z,67.00
2022-10-11T18:51:05.407Z,67.41
2022-10-11T18:53:33.799Z,68.18
2022-10-11T18:56:01.723Z,68.22
2022-10-11T18:58:32.732Z,68.19
2022-10-11T19:01:15.909Z,68.56
2022-10-11T19:03:43.483Z,68.69
2022-10-11T19:06:19.443Z,69.04
2022-10-11T19:08:53.611Z,69.63
2022-10-11T19:11:22.212Z,69.43
2022-10-11T19:13:55.687Z,69.16
2022-10-11T19:16:22.687Z,69.55
2022-10-11T19:18:50.127Z,69.60
2022-10-11T19:21:16.737Z,70.11
2022-10-11T19:23:45.403Z,69.60
2022-10-11T19:26:28.836Z,70.65
2022-10-11T19:29:01.268Z,70.20
2022-10-11T19:31:28.916Z,70.11
2022-10-11T19:33:57.195Z,70.82
2022-10-11T19:36:23.883Z,70.58
2022-10-11T19:38:51.009Z,70.44
2022-10-11T19:41:19.633Z,70.77
2022-10-11T19:43:46.546Z,70.61
2022-10-11T19:46:20.332Z,70.68
2022-10-11T19:48:54.456Z,70.88
2022-10-11T19:51:23.311Z,71.31
2022-10-11T19:53:55.898Z,71.36
2022-10-11T19:56:22.571Z,71.61
2022-10-11T19:58:49.468Z,71.63
2022-10-11T20:01:26.968Z,71.72
2022-10-11T20:03:56.575Z,72.13
2022-10-11T20:06:23.975Z,71.94
2022-10-11T20:09:10.310Z,72.16
2022-10-11T20:11:37.451Z,72.57
2022-10-11T20:14:04.137Z,72.56
2022-10-11T20:16:30.675Z,72.26
2022-10-11T20:18:59.240Z,72.62
2022-10-11T20:21:28.366Z,72.69
2022-10-11T20:24:01.248Z,72.91
2022-10-11T20:26:28.825Z,72.42
2022-10-11T20:28:56.639Z,72.78
2022-10-11T20:31:32.167Z,73.35
2022-10-11T20:34:01.935Z,73.59
2022-10-11T20:36:30.137Z,73.39
2022-10-11T20:38:57.992Z,73.44
2022-10-11T20:41:31.553Z,73.86
2022-10-11T20:43:59.739Z,73.52
2022-10-11T20:46:29.819Z,73.38
2022-10-11T20:49:01.953Z,73.92
2022-10-11T20:51:30.418Z,73.67
2022-10-11T20:53:58.421Z,73.71
2022-10-11T20:56:25.011Z,73.82
2022-10-11T20:58:53.660Z,73.70
2022-10-11T21:01:22.762Z,74.51
2022-10-11T21:03:50.342Z,74.21
2022-10-11T21:06:16.968Z,74.42
2022-10-11T21:08:43.751Z,73.80
2022-10-11T21:11:11.115Z,74.69
2022-10-11T21:13:37.986Z,74.88
2022-10-11T21:16:07.971Z,74.41
2022-10-11T21:18:34.575Z,74.81
2022-10-11T21:21:07.280Z,74.77
2022-10-11T21:23:34.534Z,75.01
2022-10-11T21:26:06.857Z,74.79
2022-10-11T21:28:33.733Z,74.13
2022-10-11T21:31:08.600Z,75.39
2022-10-11T21:33:35.594Z,75.40
2022-10-11T21:36:14.324Z,75.10
2022-10-11T21:38:41.231Z,75.29
2022-10-11T21:41:11.489Z,74.99
2022-10-11T21:43:38.959Z,75.06
2022-10-11T21:46:10.646Z,75.72
2022-10-11T21:48:37.244Z,75.02
2022-10-11T21:51:04.275Z,75.76
2022-10-11T21:53:30.923Z,75.26
2022-10-11T21:55:58.497Z,75.13
2022-10-11T21:58:25.231Z,75.81
2022-10-11T22:00:52.305Z,76.17
2022-10-11T22:03:19.026Z,76.08
2022-10-11T22:05:46.979Z,75.93
2022-10-11T22:08:14.551Z,75.15
2022-10-11T22:10:51.692Z,75.76
2022-10-11T22:13:18.205Z,75.17
2022-10-11T22:15:44.733Z,76.40
2022-10-11T22:18:11.495Z,76.64
2022-10-11T22:20:37.974Z,75.64
2022-10-11T22:23:04.598Z,76.26
2022-10-11T22:25:31.104Z,75.40
2022-10-11T22:27:57.721Z,76.65
2022-10-11T22:30:24.207Z,75.33
2022-10-11T22:32:51.480Z,75.53
2022-10-11T22:35:18.793Z,75.95
2022-10-11T22:37:45.625Z,76.36
2022-10-11T22:40:12.535Z,75.92
2022-10-11T22:42:39.044Z,75.83
2022-10-11T22:45:05.877Z,75.87
2022-10-11T22:47:32.418Z,76.29
2022-10-11T22:49:58.886Z,75.64
2022-10-11T22:52:25.433Z,76.22
2022-10-11T22:54:51.974Z,75.94
2022-10-11T22:57:18.467Z,75.55
2022-10-11T22:59:45.090Z,75.64
2022-10-11T23:02:11.601Z,76.12
2022-10-11T23:04:38.080Z,76.42
2022-10-11T23:07:05.248Z,76.10
2022-10-11T23:09:31.915Z,76.10
2022-10-11T23:11:59.245Z,76.01
2022-10-11T23:14:25.785Z,76.46
2022-10-11T23:16:53.139Z,75.61
2022-10-11T23:19:19.794Z,76.62
2022-10-11T23:21:46.818Z,76.47
2022-10-11T23:24:13.429Z,76.30
2022-10-11T23:26:39.905Z,76.44
2022-10-11T23:29:06.468Z,76.25
2022-10-11T23:31:32.984Z,77.31
2022-10-11T23:33:59.444Z,76.80
2022-10-11T23:36:26.212Z,76.11
2022-10-11T23:38:55.153Z,77.34
2022-10-11T23:41:23.245Z,76.63
2022-10-11T23:43:49.777Z,76.84
2022-10-11T23:46:16.735Z,76.43
2022-10-11T23:48:43.271Z,75.66
2022-10-11T23:51:10.607Z,76.77
2022-10-11T23:53:37.318Z,76.27
2022-10-11T23:56:05.244Z,76.20
2022-10-11T23:58:31.745Z,76.65
